createdAt,value
2018-03-21T00:01:08.036Z,101029.70
2018-03-21T00:03:36.431Z,101029.56
2018-03-21T00:06:04.901Z,101035.62
2018-03-21T00:08:33.333Z,101033.42
2018-03-21T00:11:01.752Z,101047.52
2018-03-21T00:13:30.222Z,101051.31
2018-03-21T00:15:58.634Z,101053.03
2018-03-21T00:18:27.057Z,101051.31
2018-03-21T00:20:55.518Z,101058.77
2018-03-21T00:23:23.944Z,101057.59
2018-03-21T00:25:52.362Z,101059.55
2018-03-21T00:28:20.823Z,101058.19
2018-03-21T00:30:49.230Z,101061.66
2018-03-21T00:33:17.669Z,101068.83
2018-03-21T00:35:46.161Z,101066.03
2018-03-21T00:38:14.576Z,101074.03
2018-03-21T00:40:43.000Z,101075.89
2018-03-21T00:43:11.469Z,101065.88
2018-03-21T00:45:39.921Z,101070.28
2018-03-21T00:48:08.338Z,101071.80
2018-03-21T00:50:36.789Z,101083.73
2018-03-21T00:53:05.225Z,101072.94
2018-03-21T00:55:33.656Z,101077.31
2018-03-21T00:58:02.144Z,101078.11
2018-03-21T01:00:30.569Z,101081.37
2018-03-21T01:02:58.977Z,101083.39
2018-03-21T01:05:27.426Z,101087.23
2018-03-21T01:07:55.833Z,101081.92
2018-03-21T01:10:24.245Z,101087.08
2018-03-21T01:12:52.717Z,101087.20
2018-03-21T01:15:21.157Z,101087.45
2018-03-21T01:17:49.582Z,101089.70
2018-03-21T01:20:18.041Z,101088.04
2018-03-21T01:22:46.465Z,101086.80
2018-03-21T01:25:14.887Z,101088.36
2018-03-21T01:27:43.349Z,101090.78
2018-03-21T01:30:11.777Z,101093.18
2018-03-21T01:32:40.205Z,101088.83
2018-03-21T01:35:08.673Z,101092.22
2018-03-21T01:37:37.124Z,101089.23
2018-03-21T01:40:05.565Z,101083.17
2018-03-21T01:42:34.048Z,101090.14
2018-03-21T01:45:02.481Z,101087.70
2018-03-21T01:47:30.894Z,101090.13
2018-03-21T01:49:59.383Z,101085.48
2018-03-21T01:52:27.828Z,101089.66
2018-03-21T01:54:56.265Z,101093.00
2018-03-21T01:57:24.742Z,101094.19
2018-03-21T01:59:53.176Z,101082.27
2018-03-21T02:02:21.592Z,101092.70
2018-03-21T02:04:50.058Z,101087.21
2018-03-21T02:07:18.493Z,101085.27
2018-03-21T02:09:46.905Z,101083.34
2018-03-21T02:12:15.372Z,101081.33
2018-03-21T02:14:43.785Z,101085.80
2018-03-21T02:17:12.194Z,101082.09
2018-03-21T02:19:40.654Z,101080.89
2018-03-21T02:22:09.060Z,101081.84
2018-03-21T02:24:37.489Z,101078.63
2018-03-21T02:27:05.989Z,101085.08
2018-03-21T02:29:34.402Z,101081.31
2018-03-21T02:32:02.825Z,101079.00
2018-03-21T02:34:31.299Z,101074.17
2018-03-21T02:36:59.760Z,101081.31
2018-03-21T02:39:28.176Z,101080.79
2018-03-21T02:41:56.629Z,101081.13
2018-03-21T02:44:25.040Z,101083.69
2018-03-21T02:46:53.452Z,101085.06
2018-03-21T02:49:22.062Z,101079.36
2018-03-21T02:51:50.485Z,101081.96
2018-03-21T02:54:18.903Z,101083.04
2018-03-21T02:56:47.371Z,101082.67
2018-03-21T02:59:15.777Z,101082.75
2018-03-21T03:01:44.199Z,101083.03
2018-03-21T03:04:12.675Z,101080.96
2018-03-21T03:06:41.087Z,101076.25
2018-03-21T03:09:09.508Z,101084.87
2018-03-21T03:11:37.968Z,101078.80
2018-03-21T03:14:06.392Z,101082.27
2018-03-21T03:16:34.801Z,101085.77
2018-03-21T03:19:03.267Z,101085.05
2018-03-21T03:21:31.677Z,101087.51
2018-03-21T03:24:00.092Z,101087.38
2018-03-21T03:26:28.572Z,101090.18
2018-03-21T03:28:56.982Z,101088.06
2018-03-21T03:31:25.394Z,101085.08
2018-03-21T03:33:53.860Z,101086.04
2018-03-21T03:36:22.295Z,101080.13
2018-03-21T03:38:50.787Z,101080.64
2018-03-21T03:41:19.253Z,101085.09
2018-03-21T03:43:47.680Z,101086.20
2018-03-21T03:46:16.095Z,101093.74
2018-03-21T03:48:44.734Z,101087.13
2018-03-21T03:51:13.209Z,101080.64
2018-03-21T03:53:41.633Z,101087.13
2018-03-21T03:56:10.116Z,101086.61
2018-03-21T03:58:38.526Z,101086.47
2018-03-21T04:01:06.933Z,101082.95
2018-03-21T04:03:35.395Z,101085.94
2018-03-21T04:06:03.840Z,101079.02
2018-03-21T04:08:32.273Z,101083.12
2018-03-21T04:11:00.933Z,101083.75
2018-03-21T04:13:29.352Z,101084.22
2018-03-21T04:15:57.776Z,101087.11
2018-03-21T04:18:26.240Z,101080.40
2018-03-21T04:20:54.665Z,101082.08
2018-03-21T04:23:23.081Z,101080.24
2018-03-21T04:25:51.542Z,101085.53
2018-03-21T04:28:19.964Z,101083.14
2018-03-21T04:30:48.378Z,101089.66
2018-03-21T04:33:16.830Z,101083.08
2018-03-21T04:35:45.255Z,101085.70
2018-03-21T04:38:13.682Z,101087.98
2018-03-21T04:40:42.134Z,101090.03
2018-03-21T04:43:10.538Z,101093.48
2018-03-21T04:45:38.969Z,101100.98
2018-03-21T04:48:07.451Z,101093.97
2018-03-21T04:50:35.892Z,101092.66
2018-03-21T04:53:04.338Z,101098.72
2018-03-21T04:55:32.790Z,101095.91
2018-03-21T04:58:01.214Z,101094.70
2018-03-21T05:00:29.641Z,101092.45
2018-03-21T05:02:58.105Z,101092.28
2018-03-21T05:05:26.540Z,101099.94
2018-03-21T05:07:54.946Z,101094.13
2018-03-21T05:10:23.441Z,101091.50
2018-03-21T05:12:51.884Z,101093.48
2018-03-21T05:15:20.342Z,101094.74
2018-03-21T05:17:48.832Z,101089.71
2018-03-21T05:20:17.251Z,101093.48
2018-03-21T05:22:45.685Z,101093.48
2018-03-21T05:25:14.181Z,101098.98
2018-03-21T05:27:42.609Z,101102.50
2018-03-21T05:30:11.032Z,101106.38
2018-03-21T05:32:39.739Z,101104.11
2018-03-21T05:35:08.171Z,101104.53
2018-03-21T05:37:36.598Z,101108.41
2018-03-21T05:40:05.083Z,101107.27
2018-03-21T05:42:33.505Z,101113.11
2018-03-21T05:45:01.932Z,101111.13
2018-03-21T05:47:30.398Z,101112.39
2018-03-21T05:49:58.816Z,101111.02
2018-03-21T05:52:28.170Z,101116.98
2018-03-21T05:54:56.626Z,101110.19
2018-03-21T05:57:25.039Z,101096.55
2018-03-21T05:59:53.461Z,101103.77
2018-03-21T06:02:21.940Z,101108.20
2018-03-21T06:04:50.383Z,101113.68
2018-03-21T06:07:18.819Z,101106.66
2018-03-21T06:09:47.318Z,101105.97
2018-03-21T06:12:15.766Z,101112.77
2018-03-21T06:14:44.203Z,101113.19
2018-03-21T06:17:12.694Z,101115.45
2018-03-21T06:19:41.129Z,101114.51
2018-03-21T06:22:09.580Z,101115.98
2018-03-21T06:24:38.076Z,101120.56
2018-03-21T06:27:06.518Z,101124.64
2018-03-21T06:29:34.972Z,101119.98
2018-03-21T06:32:03.450Z,101118.84
2018-03-21T06:34:31.888Z,101127.16
2018-03-21T06:37:00.324Z,101130.36
2018-03-21T06:39:28.821Z,101137.09
2018-03-21T06:41:57.258Z,101142.00
2018-03-21T06:44:25.690Z,101146.06
2018-03-21T06:46:54.167Z,101149.95
2018-03-21T06:49:22.591Z,101145.53
2018-03-21T06:51:51.020Z,101150.86
2018-03-21T06:54:19.500Z,101156.81
2018-03-21T06:57:03.747Z,101152.80
2018-03-21T06:59:32.234Z,101151.73
2018-03-21T07:02:00.664Z,101152.57
2018-03-21T07:04:29.078Z,101143.11
2018-03-21T07:06:57.555Z,101148.86
2018-03-21T07:09:25.990Z,101152.28
2018-03-21T07:11:54.421Z,101150.59
2018-03-21T07:14:34.583Z,101147.30
2018-03-21T07:17:03.010Z,101141.22
2018-03-21T07:19:31.441Z,101139.53
2018-03-21T07:21:59.923Z,101143.03
2018-03-21T07:24:28.346Z,101140.63
2018-03-21T07:26:56.784Z,101144.92
2018-03-21T07:29:25.242Z,101141.38
2018-03-21T07:31:53.684Z,101144.88
2018-03-21T07:34:22.093Z,101142.69
2018-03-21T07:36:50.542Z,101138.39
2018-03-21T07:39:18.966Z,101137.59
2018-03-21T07:41:47.374Z,101140.36
2018-03-21T07:44:15.838Z,101135.34
2018-03-21T07:46:44.250Z,101135.05
2018-03-21T07:49:12.679Z,101137.67
2018-03-21T07:51:41.526Z,101139.27
2018-03-21T07:54:09.935Z,101140.66
2018-03-21T07:56:38.404Z,101142.34
2018-03-21T07:59:06.858Z,101137.24
2018-03-21T08:01:35.285Z,101137.69
2018-03-21T08:04:03.712Z,101135.61
2018-03-21T08:06:32.193Z,101136.04
2018-03-21T08:09:00.638Z,101135.45
2018-03-21T08:11:29.057Z,101136.51
2018-03-21T08:13:57.510Z,101133.18
2018-03-21T08:16:25.961Z,101131.84
2018-03-21T08:18:54.373Z,101139.19
2018-03-21T08:21:22.817Z,101134.77
2018-03-21T08:23:51.231Z,101140.77
2018-03-21T08:26:19.645Z,101142.55
2018-03-21T08:28:48.181Z,101137.02
2018-03-21T08:31:16.595Z,101142.31
2018-03-21T08:33:45.003Z,101149.41
2018-03-21T08:36:13.464Z,101152.86
2018-03-21T08:38:41.888Z,101151.22
2018-03-21T08:41:10.321Z,101154.11
2018-03-21T08:43:38.798Z,101148.02
2018-03-21T08:46:07.249Z,101145.16
2018-03-21T08:48:35.671Z,101148.39
2018-03-21T08:51:04.157Z,101146.10
2018-03-21T08:53:32.575Z,101147.52
2018-03-21T08:56:00.973Z,101149.45
2018-03-21T08:58:29.443Z,101144.19
2018-03-21T09:00:57.876Z,101150.12
2018-03-21T09:03:26.286Z,101141.03
2018-03-21T09:05:54.736Z,101147.05
2018-03-21T09:08:23.156Z,101139.97
2018-03-21T09:10:51.558Z,101145.09
2018-03-21T09:13:20.013Z,101143.69
2018-03-21T09:15:48.444Z,101140.91
2018-03-21T09:18:16.927Z,101143.76
2018-03-21T09:20:45.365Z,101141.42
2018-03-21T09:23:13.788Z,101135.49
2018-03-21T09:25:42.202Z,101143.05
2018-03-21T09:28:10.665Z,101136.20
2018-03-21T09:30:39.089Z,101143.05
2018-03-21T09:33:07.494Z,101138.92
2018-03-21T09:35:35.976Z,101137.92
2018-03-21T09:38:04.390Z,101130.19
2018-03-21T09:40:32.800Z,101136.02
2018-03-21T09:43:01.264Z,101128.66
2018-03-21T09:45:29.693Z,101130.15
2018-03-21T09:47:58.106Z,101132.42
2018-03-21T09:50:26.589Z,101125.91
2018-03-21T09:52:55.013Z,101128.43
2018-03-21T09:55:23.484Z,101125.03
2018-03-21T09:57:51.915Z,101128.04
2018-03-21T10:00:20.314Z,101120.47
2018-03-21T10:02:48.727Z,101119.00
2018-03-21T10:05:17.209Z,101118.16
2018-03-21T10:07:45.633Z,101127.30
2018-03-21T10:10:14.066Z,101123.56
2018-03-21T10:12:42.529Z,101121.28
2018-03-21T10:15:10.954Z,101116.03
2018-03-21T10:17:39.358Z,101118.63
2018-03-21T10:20:07.817Z,101116.16
2018-03-21T10:22:36.281Z,101110.44
2018-03-21T10:25:04.707Z,101109.14
2018-03-21T10:27:33.213Z,101114.58
2018-03-21T10:30:01.633Z,101109.97
2018-03-21T10:32:30.085Z,101114.47
2018-03-21T10:34:58.570Z,101113.67
2018-03-21T10:37:26.974Z,101116.25
2018-03-21T10:39:55.379Z,101115.72
2018-03-21T10:42:23.857Z,101118.28
2018-03-21T10:44:52.295Z,101113.95
2018-03-21T10:47:20.735Z,101108.99
2018-03-21T10:49:49.487Z,101110.52
2018-03-21T10:52:17.927Z,101109.08
2018-03-21T10:54:46.353Z,101111.27
2018-03-21T10:57:14.844Z,101105.39
2018-03-21T10:59:43.277Z,101110.73
2018-03-21T11:02:14.538Z,101112.58
2018-03-21T11:04:42.962Z,101103.64
2018-03-21T11:07:11.366Z,101108.91
2018-03-21T11:09:39.842Z,101110.76
2018-03-21T11:12:08.276Z,101112.30
2018-03-21T11:14:36.690Z,101113.23
2018-03-21T11:17:05.150Z,101116.80
2018-03-21T11:19:33.569Z,101111.73
2018-03-21T11:22:02.008Z,101112.81
2018-03-21T11:24:30.488Z,101116.73
2018-03-21T11:26:58.921Z,101117.27
2018-03-21T11:29:27.340Z,101111.19
2018-03-21T11:31:55.791Z,101102.72
2018-03-21T11:34:24.224Z,101105.45
2018-03-21T11:36:52.634Z,101104.53
2018-03-21T11:39:21.104Z,101102.17
2018-03-21T11:41:49.533Z,101100.39
2018-03-21T11:44:18.010Z,101096.64
2018-03-21T11:46:46.468Z,101090.92
2018-03-21T11:49:14.897Z,101086.52
2018-03-21T11:51:43.316Z,101085.00
2018-03-21T11:54:11.767Z,101083.39
2018-03-21T11:56:40.198Z,101071.57
2018-03-21T11:59:08.616Z,101061.09
2018-03-21T12:01:37.102Z,101061.38
2018-03-21T12:04:05.533Z,101062.17
2018-03-21T12:06:33.934Z,101054.55
2018-03-21T12:09:02.381Z,101046.16
2018-03-21T12:11:30.787Z,101043.69
2018-03-21T12:13:59.198Z,101041.86
2018-03-21T12:16:28.006Z,101038.39
2018-03-21T12:18:56.405Z,101040.55
2018-03-21T12:21:24.822Z,101027.34
2018-03-21T12:23:53.297Z,101030.02
2018-03-21T12:26:21.720Z,101029.85
2018-03-21T12:28:50.140Z,101029.52
2018-03-21T12:31:18.582Z,101030.91
2018-03-21T12:33:47.002Z,101027.64
2018-03-21T12:36:15.401Z,101026.02
2018-03-21T12:38:43.873Z,101027.89
2018-03-21T12:41:12.282Z,101029.10
2018-03-21T12:43:40.691Z,101022.58
2018-03-21T12:46:09.325Z,101029.77
2018-03-21T12:48:37.734Z,101031.39
2018-03-21T12:51:06.150Z,101037.22
2018-03-21T12:53:34.599Z,101032.98
2018-03-21T12:56:03.044Z,101037.00
2018-03-21T12:58:31.471Z,101032.61
2018-03-21T13:00:59.913Z,101042.93
2018-03-21T13:03:28.337Z,101037.39
2018-03-21T13:05:56.738Z,101043.69
2018-03-21T13:08:25.209Z,101036.85
2018-03-21T13:10:53.628Z,101039.60
2018-03-21T13:13:22.034Z,101039.69
2018-03-21T13:15:50.509Z,101041.97
2018-03-21T13:18:18.929Z,101039.02
2018-03-21T13:20:47.329Z,101029.85
2018-03-21T13:23:15.783Z,101027.03
2018-03-21T13:25:44.204Z,101023.72
2018-03-21T13:28:12.623Z,101013.11
2018-03-21T13:30:41.094Z,101015.39
2018-03-21T13:33:09.539Z,101022.81
2018-03-21T13:35:37.950Z,101019.39
2018-03-21T13:38:06.432Z,101017.53
2018-03-21T13:40:34.834Z,101009.28
2018-03-21T13:43:03.257Z,101012.58
2018-03-21T13:45:31.710Z,101011.08
2018-03-21T13:48:00.170Z,101011.75
2018-03-21T13:50:28.578Z,101012.91
2018-03-21T13:52:57.057Z,101006.98
2018-03-21T13:55:25.463Z,101008.32
2018-03-21T13:57:53.885Z,101005.11
2018-03-21T14:00:22.350Z,101009.89
2018-03-21T14:02:50.773Z,101007.11
2018-03-21T14:05:19.243Z,101012.86
2018-03-21T14:07:47.674Z,101009.20
2018-03-21T14:10:16.084Z,101008.34
2018-03-21T14:12:44.553Z,101002.30
2018-03-21T14:15:12.999Z,100992.66
2018-03-21T14:17:41.421Z,100991.95
2018-03-21T14:20:09.846Z,100994.66
2018-03-21T14:22:38.294Z,100994.79
2018-03-21T14:25:06.712Z,100988.77
2018-03-21T14:27:35.137Z,100987.27
2018-03-21T14:30:03.742Z,100986.69
2018-03-21T14:32:32.169Z,100980.03
2018-03-21T14:35:00.588Z,100978.48
2018-03-21T14:37:29.044Z,100972.06
2018-03-21T14:39:57.452Z,100979.75
2018-03-21T14:42:25.892Z,100973.91
2018-03-21T14:44:54.340Z,100968.48
2018-03-21T14:47:22.742Z,100968.61
2018-03-21T14:49:51.155Z,100965.27
2018-03-21T14:52:19.632Z,100971.45
2018-03-21T14:54:48.050Z,100969.41
2018-03-21T14:57:16.463Z,100969.11
2018-03-21T14:59:45.072Z,100958.78
2018-03-21T15:02:13.502Z,100955.66
2018-03-21T15:04:41.932Z,100951.76
2018-03-21T15:07:10.390Z,100952.92
2018-03-21T15:09:38.817Z,100959.69
2018-03-21T15:12:07.236Z,100951.34
2018-03-21T15:14:35.720Z,100944.85
2018-03-21T15:17:04.131Z,100953.34
2018-03-21T15:19:32.551Z,100947.35
2018-03-21T15:22:01.017Z,100948.38
2018-03-21T15:24:29.426Z,100948.77
2018-03-21T15:26:57.861Z,100946.73
2018-03-21T15:29:26.310Z,100947.80
2018-03-21T15:31:54.715Z,100946.95
2018-03-21T15:34:23.138Z,100947.91
2018-03-21T15:36:51.601Z,100955.73
2018-03-21T15:39:20.020Z,100949.35
2018-03-21T15:41:48.451Z,100947.09
2018-03-21T15:44:16.906Z,100953.52
2018-03-21T15:46:45.329Z,100948.53
2018-03-21T15:49:13.757Z,100943.16
2018-03-21T15:51:42.237Z,100943.88
2018-03-21T15:54:10.916Z,100939.66
2018-03-21T15:56:39.345Z,100941.59
2018-03-21T15:59:07.801Z,100949.89
2018-03-21T16:01:36.230Z,100944.44
2018-03-21T16:04:04.641Z,100945.13
2018-03-21T16:06:33.121Z,100951.77
2018-03-21T16:09:01.556Z,100952.01
2018-03-21T16:11:29.984Z,100949.55
2018-03-21T16:13:58.446Z,100948.89
2018-03-21T16:16:26.850Z,100948.77
2018-03-21T16:18:55.258Z,100947.87
2018-03-21T16:21:23.713Z,100946.59
2018-03-21T16:23:52.131Z,100946.47
2018-03-21T16:26:20.530Z,100948.63
2018-03-21T16:28:48.994Z,100951.45
2018-03-21T16:31:17.457Z,100949.72
2018-03-21T16:33:45.866Z,100949.33
2018-03-21T16:36:14.333Z,100951.21
2018-03-21T16:38:42.760Z,100951.67
2018-03-21T16:41:11.162Z,100954.52
2018-03-21T16:43:39.630Z,100954.66
2018-03-21T16:46:08.057Z,100951.00
2018-03-21T16:48:36.458Z,100952.31
2018-03-21T16:51:04.945Z,100954.12
2018-03-21T16:53:33.376Z,100949.59
2018-03-21T16:56:01.806Z,100950.49
2018-03-21T16:58:30.258Z,100951.25
2018-03-21T17:00:58.681Z,100940.61
2018-03-21T17:03:27.092Z,100943.73
2018-03-21T17:05:55.550Z,100941.10
2018-03-21T17:08:23.981Z,100940.71
2018-03-21T17:10:52.404Z,100942.17
2018-03-21T17:13:20.877Z,100952.16
2018-03-21T17:15:49.286Z,100945.48
2018-03-21T17:18:17.699Z,100941.92
2018-03-21T17:20:46.168Z,100941.58
2018-03-21T17:23:14.593Z,100941.09
2018-03-21T17:25:43.004Z,100940.20
2018-03-21T17:28:11.459Z,100940.94
2018-03-21T17:30:39.917Z,100931.48
2018-03-21T17:33:08.331Z,100928.70
2018-03-21T17:35:36.790Z,100929.52
2018-03-21T17:38:05.207Z,100927.94
2018-03-21T17:40:33.626Z,100933.97
2018-03-21T17:43:02.116Z,100927.54
2018-03-21T17:45:30.530Z,100923.70
2018-03-21T17:47:58.938Z,100923.75
2018-03-21T17:50:27.421Z,100924.64
2018-03-21T17:52:55.848Z,100921.28
2018-03-21T17:55:24.292Z,100924.54
2018-03-21T17:57:52.792Z,100920.92
2018-03-21T18:00:21.287Z,100923.23
2018-03-21T18:02:50.071Z,100922.44
2018-03-21T18:05:18.680Z,100917.94
2018-03-21T18:07:47.113Z,100914.38
2018-03-21T18:10:15.527Z,100917.22
2018-03-21T18:12:43.978Z,100918.49
2018-03-21T18:15:12.389Z,100926.08
2018-03-21T18:17:40.824Z,100923.19
2018-03-21T18:20:09.289Z,100926.80
2018-03-21T18:22:37.709Z,100923.47
2018-03-21T18:25:06.138Z,100917.38
2018-03-21T18:27:34.614Z,100913.31
2018-03-21T18:30:03.104Z,100909.89
2018-03-21T18:32:31.522Z,100908.93
2018-03-21T18:35:00.010Z,100909.11
2018-03-21T18:37:28.434Z,100905.80
2018-03-21T18:39:56.851Z,100909.89
2018-03-21T18:42:25.321Z,100902.45
2018-03-21T18:44:53.741Z,100906.62
2018-03-21T18:47:22.149Z,100901.13
2018-03-21T18:49:50.654Z,100903.66
2018-03-21T18:52:19.108Z,100906.30
2018-03-21T18:54:47.546Z,100902.97
2018-03-21T18:57:16.033Z,100900.30
2018-03-21T18:59:44.466Z,100896.53
2018-03-21T19:02:12.880Z,100898.80
2018-03-21T19:04:41.394Z,100891.97
2018-03-21T19:07:09.820Z,100894.20
2018-03-21T19:09:38.230Z,100892.20
2018-03-21T19:12:06.713Z,100895.59
2018-03-21T19:14:35.129Z,100887.08
2018-03-21T19:17:03.556Z,100886.12
2018-03-21T19:19:32.047Z,100888.20
2018-03-21T19:22:00.458Z,100882.30
2018-03-21T19:24:28.893Z,100879.86
2018-03-21T19:26:57.365Z,100881.20
2018-03-21T19:29:25.787Z,100875.59
2018-03-21T19:31:54.245Z,100873.50
2018-03-21T19:34:22.736Z,100869.17
2018-03-21T19:36:51.191Z,100860.89
2018-03-21T19:39:19.601Z,100857.83
2018-03-21T19:41:48.081Z,100855.44
2018-03-21T19:44:16.501Z,100858.05
2018-03-21T19:46:44.921Z,100856.18
2018-03-21T19:49:13.417Z,100853.27
2018-03-21T19:51:41.848Z,100849.92
2018-03-21T19:54:11.052Z,100845.23
2018-03-21T19:56:39.514Z,100844.15
2018-03-21T19:59:07.977Z,100833.45
2018-03-21T20:01:36.452Z,100832.02
2018-03-21T20:04:04.944Z,100826.31
2018-03-21T20:06:33.370Z,100820.13
2018-03-21T20:09:01.787Z,100825.44
2018-03-21T20:11:30.247Z,100821.22
2018-03-21T20:13:58.675Z,100817.13
2018-03-21T20:16:27.089Z,100812.39
2018-03-21T20:18:55.580Z,100816.64
2018-03-21T20:21:23.990Z,100803.53
2018-03-21T20:23:52.402Z,100800.21
2018-03-21T20:26:20.885Z,100797.79
2018-03-21T20:28:49.298Z,100791.53
2018-03-21T20:31:17.739Z,100787.16
2018-03-21T20:33:46.237Z,100787.28
2018-03-21T20:36:14.646Z,100779.22
2018-03-21T20:38:43.050Z,100770.36
2018-03-21T20:41:11.548Z,100765.91
2018-03-21T20:43:39.982Z,100767.16
2018-03-21T20:46:08.409Z,100764.20
2018-03-21T20:48:36.879Z,100761.02
2018-03-21T20:51:05.368Z,100755.28
2018-03-21T20:53:33.754Z,100749.98
2018-03-21T20:56:02.213Z,100750.98
2018-03-21T20:58:30.637Z,100737.42
2018-03-21T21:00:59.064Z,100736.73
2018-03-21T21:03:27.526Z,100739.38
2018-03-21T21:05:55.990Z,100743.15
2018-03-21T21:08:24.426Z,100732.94
2018-03-21T21:10:52.898Z,100732.23
2018-03-21T21:13:21.329Z,100732.30
2018-03-21T21:15:49.761Z,100728.63
2018-03-21T21:18:18.232Z,100733.16
2018-03-21T21:20:46.654Z,100718.86
2018-03-21T21:23:15.081Z,100716.83
2018-03-21T21:25:43.574Z,100711.64
2018-03-21T21:28:11.986Z,100710.42
2018-03-21T21:30:40.394Z,100706.84
2018-03-21T21:33:08.878Z,100709.58
2018-03-21T21:35:37.306Z,100712.55
2018-03-21T21:38:05.727Z,100709.58
2018-03-21T21:40:34.216Z,100708.45
2018-03-21T21:43:02.668Z,100710.29
2018-03-21T21:45:31.117Z,100704.33
2018-03-21T21:47:59.612Z,100701.11
2018-03-21T21:50:28.053Z,100701.39
2018-03-21T21:52:56.496Z,100707.30
2018-03-21T21:55:24.954Z,100698.37
2018-03-21T21:57:53.401Z,100701.91
2018-03-21T22:00:21.814Z,100689.51
2018-03-21T22:02:50.283Z,100688.31
2018-03-21T22:05:18.713Z,100691.37
2018-03-21T22:07:47.157Z,100683.88
2018-03-21T22:10:15.622Z,100681.81
2018-03-21T22:12:44.086Z,100675.43
2018-03-21T22:15:12.530Z,100670.53
2018-03-21T22:17:41.021Z,100664.67
2018-03-21T22:20:09.452Z,100664.06
2018-03-21T22:22:37.864Z,100655.49
2018-03-21T22:25:06.322Z,100650.70
2018-03-21T22:27:34.752Z,100651.98
2018-03-21T22:30:03.177Z,100648.73
2018-03-21T22:32:31.630Z,100645.67
2018-03-21T22:35:00.060Z,100642.90
2018-03-21T22:37:28.481Z,100638.78
2018-03-21T22:39:56.954Z,100634.59
2018-03-21T22:42:25.380Z,100630.41
2018-03-21T22:44:53.812Z,100628.98
2018-03-21T22:47:22.284Z,100620.27
2018-03-21T22:49:50.716Z,100613.66
2018-03-21T22:52:19.130Z,100611.15
2018-03-21T22:54:47.599Z,100603.88
2018-03-21T22:57:16.017Z,100605.73
2018-03-21T22:59:44.442Z,100600.52
2018-03-21T23:02:12.910Z,100596.34
2018-03-21T23:04:41.342Z,100597.37
2018-03-21T23:07:09.778Z,100602.61
2018-03-21T23:09:38.338Z,100592.38
2018-03-21T23:12:06.755Z,100592.19
2018-03-21T23:14:35.170Z,100587.84
2018-03-21T23:17:03.625Z,100586.33
2018-03-21T23:19:32.054Z,100584.30
2018-03-21T23:22:00.470Z,100584.88
2018-03-21T23:24:28.938Z,100585.81
2018-03-21T23:26:57.369Z,100578.73
2018-03-21T23:29:25.831Z,100572.67
2018-03-21T23:31:54.275Z,100574.80
2018-03-21T23:34:22.725Z,100561.61
2018-03-21T23:36:51.150Z,100563.76
2018-03-21T23:39:19.626Z,100557.06
2018-03-21T23:41:48.065Z,100556.64
2018-03-21T23:44:16.502Z,100559.89
2018-03-21T23:46:44.994Z,100554.20
2018-03-21T23:49:13.423Z,100542.70
2018-03-21T23:51:41.853Z,100541.97
2018-03-21T23:54:10.961Z,100541.52
2018-03-21T23:56:39.386Z,100536.63
2018-03-21T23:59:07.805Z,100536.91
